Latest Weather Observations for Bundaberg

IDQ60801

Issued at 9:02 am EST Saturday 10 December 2016 (issued every 30 minutes, with the page automatically refreshed every 10 minutes)

About weather observations | Map of weather stations | Latest weather observations for QLD | Other Formats
Station Details ID: 039128 Name: BUNDABERG AERO Lat: -24.91 Lon: 152.32 Height: 30.82 m
Data from the previous 72 hours. | See also: Recent months at Bundaberg
Date/Time
EST
Temp
°C
App
Temp
°C
Dew
Point
°C
Rel
Hum
%
Delta-T
°C
Wind Press
QNH
hPa
Press
MSL
hPa
Rain since
9am
mm
Dir  Spd
km/h
Gust
km/h
Spd
kts
Gust
kts
10/08:30am 27.6 26.6 20.4 65 4.7 SE 26 35 14 19 1016.9 1016.7 1.6
10/08:00am 26.7 25.6 20.3 68 4.2 SE 26 32 14 17 1016.8 1016.6 1.6
10/07:30am 27.1 27.2 21.2 70 3.9 SE 22 30 12 16 1016.5 1016.3 1.6
10/07:00am 25.8 26.9 21.9 79 2.6 SSE 19 28 10 15 1016.1 1015.9 1.6
10/06:30am 25.1 25.9 21.4 80 2.5 SSE 19 28 10 15 1015.8 1015.6 1.6
10/06:00am 23.4 25.6 21.1 87 1.5 SSE 11 17 6 9 1015.2 1015.0 1.6
10/05:30am 22.8 25.1 20.7 88 1.4 SSE 9 13 5 7 1014.6 1014.4 1.6
10/05:00am 22.9 25.6 20.6 87 1.5 S 7 11 4 6 1014.3 1014.1 1.6
10/04:30am 23.1 25.9 20.8 87 1.5 S 7 9 4 5 1014.0 1013.8 1.6
10/04:00am 23.1 25.4 20.6 86 1.6 S 9 13 5 7 1013.4 1013.2 1.6
10/03:30am 23.1 25.5 20.8 87 1.5 S 9 15 5 8 1013.5 1013.3 1.6
10/03:00am 23.4 26.2 20.9 86 1.6 SSE 7 11 4 6 1013.2 1013.0 1.6
10/02:30am 23.5 26.1 21.2 87 1.5 S 9 13 5 7 1013.2 1013.0 1.6
10/02:00am 23.7 27.5 21.6 88 1.4 WSW 4 9 2 5 1013.4 1013.2 1.6
10/01:30am 23.8 27.2 21.7 88 1.4 W 6 7 3 4 1013.2 1013.0 1.6
10/01:00am 24.0 28.6 21.7 87 1.5 CALM 0 0 0 0 1013.1 1012.9 1.6
10/12:30am 23.6 28.0 21.3 87 1.5 CALM 0 0 0 0 1013.6 1013.4 1.6
10/12:00am 24.0 28.6 21.7 87 1.5 CALM 0 6 0 3 1013.7 1013.5 1.6
 
Date/Time
EST
Temp
°C
App
Temp
°C
Dew
Point
°C
Rel
Hum
%
Delta-T
°C
Wind Press
QNH
hPa
Press
MSL
hPa
Rain since
9am
mm
Dir  Spd
km/h
Gust
km/h
Spd
kts
Gust
kts
09/11:30pm 24.1 27.2 21.4 85 1.8 E 7 9 4 5 1013.5 1013.3 1.6
09/11:00pm 24.1 28.5 21.4 85 1.8 CALM 0 6 0 3 1013.9 1013.7 1.4
09/10:30pm 24.3 28.4 21.6 85 1.8 ESE 2 9 1 5 1013.8 1013.6 1.4
09/10:00pm 24.7 29.2 21.6 83 2.1 CALM 0 0 0 0 1014.2 1014.0 1.4
09/09:30pm 24.6 27.9 21.5 83 2.1 SSW 6 7 3 4 1014.3 1014.1 1.4
09/09:00pm 24.6 27.8 21.3 82 2.2 S 6 6 3 3 1013.9 1013.7 1.4
09/08:30pm 24.7 28.6 21.2 81 2.3 ESE 2 7 1 4 1013.5 1013.3 1.4
09/08:00pm 25.3 28.8 21.8 81 2.3 ENE 6 7 3 4 1013.3 1013.1 1.4
09/07:30pm 25.1 29.3 21.8 82 2.2 SW 2 7 1 4 1012.9 1012.7 1.4
09/07:00pm 25.3 29.6 22.0 82 2.2 SW 2 6 1 3 1012.7 1012.5 1.4
09/06:30pm 25.3 28.2 21.0 77 2.8 ESE 7 9 4 5 1012.2 1012.0 1.4
09/06:00pm 25.9 29.6 23.2 85 1.8 SSW 9 13 5 7 1011.7 1011.5 1.4
09/05:30pm 26.6 29.6 22.7 79 2.6 N 11 15 6 8 1011.1 1010.9 0.6
09/05:00pm 27.8 30.0 21.8 70 4.0 N 13 15 7 8 1010.9 1010.7 0.0
09/04:30pm 28.3 31.0 22.1 69 4.2 N 11 17 6 9 1010.4 1010.2 0.0
09/04:00pm 28.4 30.6 21.9 68 4.4 N 13 19 7 10 1010.1 1009.9 0.0
09/03:30pm 28.9 30.1 22.2 67 4.5 NNE 19 24 10 13 1009.7 1009.5 0.0
09/03:00pm 29.3 30.3 21.8 64 5.1 NNE 19 24 10 13 1009.8 1009.6 0.0
09/02:30pm 30.4 32.8 21.5 59 6.0 E 11 19 6 10 1009.8 1009.6 0.0
09/02:00pm 31.9 32.2 17.8 43 9.1 SSW 13 20 7 11 1009.8 1009.6 0.0
09/01:30pm 32.3 31.2 17.7 41 9.4 SSW 20 32 11 17 1010.1 1009.9 0.0
09/01:00pm 32.6 32.1 16.8 38 10.0 S 15 24 8 13 1010.1 1009.9 0.0
09/12:30pm 33.1 32.3 18.1 41 9.7 SSW 19 28 10 15 1010.1 1009.9 0.0
09/12:00pm 33.0 33.9 18.4 42 9.5 SSW 11 20 6 11 1010.1 1009.9 0.0
09/11:30am 32.1 33.1 19.4 47 8.3 SSW 13 22 7 12 1010.4 1010.2 0.0
09/11:00am 32.1 33.0 20.0 48 8.0 WSW 15 26 8 14 1010.7 1010.5 0.0
09/10:30am 31.1 31.9 19.8 51 7.4 SW 15 20 8 11 1011.0 1010.8 0.0
09/10:00am 30.7 31.0 19.7 52 7.2 SW 17 24 9 13 1011.0 1010.8 0.0
09/09:30am 31.6 31.7 19.9 50 7.7 SSW 19 24 10 13 1011.2 1011.0 0.0
09/09:00am 30.1 31.0 20.1 55 6.6 WSW 15 20 8 11 1011.3 1011.1 0.0
09/08:30am 29.1 29.4 20.5 59 5.7 WSW 19 28 10 15 1011.6 1011.4 0.0
09/08:00am 28.7 29.4 21.2 64 5.0 W 19 24 10 13 1011.7 1011.5 0.0
09/07:30am 27.4 28.6 21.4 70 4.0 W 17 24 9 13 1011.9 1011.7 0.0
09/07:00am 25.6 27.3 21.7 79 2.6 WNW 15 20 8 11 1012.3 1012.1 0.0
09/06:30am 25.6 27.3 21.7 79 2.6 WNW 15 20 8 11 1011.8 1011.6 0.0
09/06:00am 24.8 27.1 22.1 85 1.8 NW 13 17 7 9 1011.4 1011.2 0.0
09/05:30am 23.6 26.5 22.4 93 0.8 NW 11 15 6 8 1011.3 1011.1 0.0
09/05:00am 23.2 26.2 22.0 93 0.8 NW 9 11 5 6 1010.9 1010.7 0.0
09/04:30am 23.4 26.4 22.0 92 0.9 NNW 9 11 5 6 1010.4 1010.2 0.0
09/04:00am 23.4 25.9 21.8 91 1.1 NNW 11 11 6 6 1010.6 1010.4 0.0
09/03:30am 23.9 26.8 21.8 88 1.4 N 9 11 5 6 1010.2 1010.0 0.0
09/03:00am 23.9 26.8 21.8 88 1.4 NNE 9 11 5 6 1010.3 1010.1 0.0
09/02:30am 24.0 26.8 22.3 90 1.1 NE 11 15 6 8 1010.4 1010.2 0.0
09/02:00am 24.3 27.6 22.6 90 1.1 NE 9 13 5 7 1010.8 1010.6 0.0
09/01:30am 24.2 27.4 22.3 89 1.3 ENE 9 11 5 6 1011.2 1011.0 0.0
09/01:00am 24.4 28.0 22.3 88 1.4 SE 7 9 4 5 1011.6 1011.4 0.0
09/12:30am 24.6 28.1 22.1 86 1.7 S 7 11 4 6 1012.2 1012.0 0.0
09/12:00am 25.2 28.2 21.9 82 2.2 S 9 13 5 7 1012.6 1012.4 0.0
 
Date/Time
EST
Temp
°C
App
Temp
°C
Dew
Point
°C
Rel
Hum
%
Delta-T
°C
Wind Press
QNH
hPa
Press
MSL
hPa
Rain since
9am
mm
Dir  Spd
km/h
Gust
km/h
Spd
kts
Gust
kts
08/11:30pm 25.6 28.6 21.9 80 2.5 WNW 9 13 5 7 1012.3 1012.1 0.0
08/11:00pm 25.6 27.4 21.9 80 2.5 NNW 15 20 8 11 1012.0 1011.8 0.0
08/10:30pm 25.7 26.5 21.8 79 2.6 N 20 24 11 13 1011.6 1011.4 0.0
08/10:00pm 25.6 26.5 21.5 78 2.7 N 19 24 10 13 1011.6 1011.4 0.0
08/09:30pm 25.5 26.4 21.6 79 2.6 N 19 24 10 13 1011.4 1011.2 0.0
08/09:00pm 25.6 26.4 21.3 77 2.8 N 19 24 10 13 1011.1 1010.9 0.0
08/08:30pm 25.3 25.9 21.4 79 2.6 NNW 20 26 11 14 1011.2 1011.0 0.0
08/08:00pm 25.7 26.4 21.6 78 2.7 N 20 26 11 14 1010.6 1010.4 0.0
08/07:30pm 25.6 25.9 21.5 78 2.7 N 22 32 12 17 1010.1 1009.9 0.0
08/07:00pm 25.7 26.2 21.1 76 3.0 N 20 30 11 16 1009.8 1009.6 0.0
08/06:30pm 26.0 25.3 21.0 74 3.3 N 26 33 14 18 1009.5 1009.3 0.0
08/06:00pm 26.4 25.2 20.9 72 3.6 N 28 39 15 21 1009.2 1009.0 0.0
08/05:30pm 26.7 25.1 20.8 70 3.9 N 30 39 16 21 1008.6 1008.4 0.0
08/05:00pm 27.3 25.1 20.4 66 4.5 N 32 41 17 22 1008.7 1008.5 0.0
08/04:30pm 28.3 26.8 20.3 62 5.3 NNE 28 39 15 21 1008.3 1008.1 0.0
08/04:00pm 28.8 27.4 20.5 61 5.5 NNE 28 35 15 19 1008.7 1008.5 0.0
08/03:30pm 29.1 28.3 20.0 58 6.0 NNE 24 32 13 17 1008.8 1008.6 0.0
08/03:00pm 29.4 28.7 20.3 58 6.0 N 24 32 13 17 1009.3 1009.1 0.0
08/02:30pm 29.0 28.6 20.2 59 5.8 NNE 22 28 12 15 1009.9 1009.7 0.0
08/02:00pm 29.5 29.3 20.6 58 5.9 NNE 22 37 12 20 1010.0 1009.8 0.0
08/01:30pm 28.6 28.7 20.3 60 5.5 NNE 20 28 11 15 1010.5 1010.3 0.0
08/01:00pm 28.7 29.1 21.0 63 5.1 N 20 26 11 14 1011.1 1010.9 0.0
08/12:30pm 27.8 28.2 20.6 65 4.8 N 19 24 10 13 1011.5 1011.3 0.0
08/12:00pm 27.9 27.9 20.2 63 5.1 N 20 28 11 15 1011.7 1011.5 0.0
08/11:30am 27.7 27.5 19.8 62 5.2 N 20 28 11 15 1012.1 1011.9 0.0
08/11:00am 29.2 28.3 19.8 57 6.2 N 24 32 13 17 1012.1 1011.9 0.0
08/10:30am 29.9 29.6 19.6 54 6.7 N 20 28 11 15 1012.1 1011.9 0.0
08/10:00am 29.4 28.5 19.1 54 6.7 N 22 32 12 17 1012.2 1012.0 0.0
08/09:30am 28.5 28.0 20.0 60 5.6 NNW 22 28 12 15 1012.5 1012.3 0.0
08/09:00am 28.7 28.9 20.2 60 5.6 N 19 30 10 16 1012.6 1012.4 0.0
08/08:30am 27.1 27.1 20.2 66 4.5 N 20 24 11 13 1012.5 1012.3 0.0
08/08:00am 28.4 28.7 20.4 62 5.3 N 19 28 10 15 1012.6 1012.4 0.0
08/07:30am 27.0 27.3 20.3 66 4.4 N 19 24 10 13 1012.7 1012.5 0.0
08/07:00am 26.1 26.8 20.4 71 3.7 N 17 20 9 11 1012.7 1012.5 0.0
08/06:30am 25.7 27.1 21.1 76 3.0 N 15 19 8 10 1012.3 1012.1 0.0
08/06:00am 24.6 26.8 21.1 81 2.3 N 11 15 6 8 1012.2 1012.0 0.0
08/05:30am 23.4 27.7 21.1 87 1.5 CALM 0 0 0 0 1012.4 1012.2 0.0
08/05:00am 23.1 25.3 20.4 85 1.8 NW 9 9 5 5 1012.0 1011.8 0.0
08/04:30am 23.7 26.3 21.2 86 1.6 NNE 9 11 5 6 1011.7 1011.5 0.0
08/04:00am 23.0 27.0 20.5 86 1.6 CALM 0 0 0 0 1011.8 1011.6 0.0
08/03:30am 23.3 27.3 20.6 85 1.8 CALM 0 0 0 0 1012.0 1011.8 0.0
08/03:00am 24.1 26.6 21.0 83 2.0 N 9 11 5 6 1012.1 1011.9 0.0
08/02:30am 24.0 26.8 20.9 83 2.0 N 7 9 4 5 1012.1 1011.9 0.0
08/02:00am 24.1 26.0 20.6 81 2.3 NE 11 15 6 8 1011.9 1011.7 0.0
08/01:30am 24.4 25.5 20.5 79 2.5 NNE 15 20 8 11 1012.1 1011.9 0.0
08/01:00am 24.3 25.8 20.6 80 2.4 NNE 13 17 7 9 1012.4 1012.2 0.0
08/12:30am 24.0 26.3 20.7 82 2.2 NNW 9 11 5 6 1013.1 1012.9 0.0
08/12:00am 24.2 26.2 20.7 81 2.3 NW 11 13 6 7 1013.6 1013.4 0.0
 
Date/Time
EST
Temp
°C
App
Temp
°C
Dew
Point
°C
Rel
Hum
%
Delta-T
°C
Wind Press
QNH
hPa
Press
MSL
hPa
Rain since
9am
mm
Dir  Spd
km/h
Gust
km/h
Spd
kts
Gust
kts
07/11:30pm 24.2 26.5 20.7 81 2.3 W 9 11 5 6 1013.9 1013.7 0.0
07/11:00pm 24.6 26.5 20.5 78 2.7 WNW 11 15 6 8 1014.0 1013.8 0.0
07/10:30pm 24.8 26.9 20.9 79 2.6 NNW 11 15 6 8 1013.9 1013.7 0.0
07/10:00pm 25.0 27.3 20.7 77 2.8 NW 9 13 5 7 1014.3 1014.1 0.0
07/09:30pm 25.4 27.7 20.6 75 3.1 NNE 9 13 5 7 1014.1 1013.9 0.0
07/09:00pm 25.4 26.6 20.6 75 3.1 N 15 20 8 11 1013.4 1013.2 0.0
07/08:30pm 25.5 27.0 20.5 74 3.3 N 13 19 7 10 1013.3 1013.1 0.0
07/08:00pm 25.7 27.2 20.5 73 3.4 N 13 17 7 9 1013.6 1013.4 0.0
07/07:30pm 25.7 26.7 20.3 72 3.5 N 15 19 8 10 1013.4 1013.2 0.0
07/07:00pm 25.8 25.8 20.1 71 3.7 N 20 28 11 15 1013.0 1012.8 0.0
07/06:30pm 26.0 25.9 19.9 69 4.0 N 20 26 11 14 1012.9 1012.7 0.0
07/06:00pm 26.3 25.4 19.9 68 4.2 N 24 33 13 18 1012.2 1012.0 0.0
07/05:30pm 26.6 24.4 19.5 65 4.6 N 30 35 16 19 1011.4 1011.2 0.0
07/05:00pm 27.6 25.7 19.4 61 5.3 N 28 35 15 19 1011.1 1010.9 0.0
07/04:30pm 28.1 26.7 19.6 60 5.5 N 26 33 14 18 1011.0 1010.8 0.0
07/04:00pm 28.3 27.1 19.2 57 5.9 N 24 33 13 18 1011.3 1011.1 0.0
07/03:30pm 28.6 27.5 19.5 58 5.9 N 24 30 13 16 1011.6 1011.4 0.0
07/03:00pm 28.9 27.8 19.5 57 6.1 N 24 32 13 17 1011.7 1011.5 0.0
07/02:30pm 28.9 27.7 19.2 55 6.3 N 24 32 13 17 1011.8 1011.6 0.0
07/02:00pm 29.1 27.9 18.5 52 6.8 N 22 32 12 17 1012.0 1011.8 0.0
07/01:30pm 29.5 27.6 18.6 52 7.0 N 26 32 14 17 1011.9 1011.7 0.0
07/01:00pm 29.8 28.4 18.9 52 7.1 NNE 24 32 13 17 1012.3 1012.1 0.0
07/12:30pm 29.8 28.3 18.6 51 7.2 N 24 33 13 18 1012.7 1012.5 0.0
07/12:00pm 29.3 27.9 18.7 52 6.8 NNE 24 33 13 18 1013.0 1012.8 0.0
07/11:30am 29.6 29.1 19.0 53 6.9 N 20 30 11 16 1013.2 1013.0 0.0
07/11:00am 30.0 29.5 19.1 52 7.1 N 20 26 11 14 1013.6 1013.4 0.0
07/10:30am 29.4 28.6 18.5 52 7.0 NNE 20 28 11 15 1014.1 1013.9 0.0
07/10:00am 29.3 29.6 18.7 52 6.8 NNE 15 24 8 13 1014.5 1014.3 0.0
07/09:30am 28.6 30.0 18.7 55 6.4 NNW 9 20 5 11 1014.8 1014.6 0.0

Other Formats:

Comma delimited format used in spreadsheet applications
http://www.bom.gov.au/fwo/IDQ60801/IDQ60801.94387.axf

JavaScript Object Notation format (JSON) in row-major order
http://www.bom.gov.au/fwo/IDQ60801/IDQ60801.94387.json